Aérodrome :
LOGIN :

S'inscrire | Disclaimer

   EN    FR    IT 

 










Légende :    VFR   VFR Marginal   IFR   IFR Intensif   IFR Très Intensif
Visi : 
Plafond : 
>= 8 km
>= 3000ft
5 à 8 km
1000 à 3000 ft
1500m à 5 km
500 à 1000 ft
800 à 1500m
200 à 500 ft
< 800m
< 200 ft
Symboles :   Orages  Brouillard  Fortes neiges  Fortes précipitations  Vent > 20 kt
SIGMETs :   Divers  Orages  Givrage  Turbulence  Onde Orograph.  Cendres Volcan.







- Altitude de l'aérodrome : 390 ft
- Code IATA : NQY
- Voir les cartes d'approche


EGHQ - Newquay

DERNIER METAR :
  • 011720Z 27027G39KT 9999 VCSH SCT018 SCT030 08/03 Q1000

METARs EXPIRÉS :
  • 011650Z 26028KT 9999 VCSH SCT018 SCT030 09/05 Q1000
  • 011620Z 27027G38KT 9999 VCSH SCT014 SCT025 09/06 Q0999
  • 011550Z 27025G35KT 9000 -SHRA SCT012 BKN020 09/07 Q0998
  • 011520Z 25026KT 6000 -SHRA SCT008 SCT012 09/07 Q0998
  • 011450Z 26020KT 8000 VCSH SCT008 SCT012 09/07 Q0998

TAF TAF EGHQ
Valide du 01 à 18h jusqu'au 01 à 22h UTC


011704Z 0118/0122 28025G35KT 9999 SCT020
PROB30
TEMPO 0118/0122 29030G45KT 5000 SHRA
Pas de NOTAMs connus pour ce terrain.
1 SIGMET publié pour la FIR London (EGTT) :
 
Turbulence forte
EGTT SIGMET 01 VALID 011630/012000 EGRR
EGTT LONDON FIR SEV TURB FCST SW OF LINE N5113 W00736 - N4945 W00318 SFC/FL060 MOV ENE 25KT INTSF=



MET'MAP, la Météo Aéronautique d'un coup d'oeil ! - Copyright ORBIFLY Décembre 2007 - Disclaimer

ORBIFLY MET'MAP TEAM :

Programmation & Développement : Alexandra Zaïnal
Conception & Développement : Baudouin d'Aumeries
Co-Programmation & Développement : Marc-Olivier Méhu
Soutien technique & logistique : Manuel Goepfert

Contact : metmap@orbifly.com




SOURCES & CREDITS :

   NOAA